Предлагаем Вашему вниманию английскую версию страницы: AUTOTAF.ME USHI - aviation weather forecast Igrim

AUTOTAF USHI - авиапрогноз Игрим

Сегодня рассвет 03:36 UTC, восход солнца 04:34 UTC,
местный полдень 07:54 UTC, заход солнца 11:14 UTC,
наступление темноты 12:12 UTC.

Краткий прогноз USHI на 9 часов

AUTOTAF.ME USHI 251700Z 2521/2606 16003MPS 9999 OVC010    
  BECMG 2522/2600 -SN   
  FM260300 16003MPS 1500 SN OVC009 
  BECMG 2604/2606 1000

Детальный прогноз USHI на 24 часа

AUTOTAF.ME USHI 251700Z 2521/2621 16003MPS 9999 OVC010 TXM18/2609Z TNM24/2521Z  
  BECMG 2522/2600 -SN   
  FM260300 16003MPS 1500 SN OVC009 
  BECMG 2604/2606 1000  
  BECMG 2607/2609 VRB02MPS  
  FM261200 VRB02MPS 1500 SN OVC008 
  FM261500 02003MPS 2000 SN OVC009 
  FM261800 03004MPS 1500 SN OVC009 
  FM262100 03004MPS 2000 SN OVC010

Подробный табличный прогноз

Время (UTC) miniAUTOTAF на 3 ч WX FZLVL
M AGL
ICE TURB Т
(°С)
Тd
(°С)
f(%) QNH
(гПа)
WIND/T
15 16003MPS 9999 OVC011 SFC MOD FL10/FL20 MOD SFC/FL20 -25 -29 72 1024 ...
21 16003MPS 9999 OVC010 SFC MOD FL10/FL20 -24 -27 76 1022 ...
26.01.2021
00 15003MPS 9999 -SN OVC010 -SN SFC MOD FL10/FL170 -23 -26 76 1020 ...
03 16003MPS 1500 SN OVC009 SN SFC MOD FL10/FL170 -22 -25 77 1018 ...
06 15003MPS 1000 SN OVC008 SN SFC MOD FL170/FL180 MOD FL20/FL30 -20 -23 79 1015 ...
09 VRB02MPS 1000 SN OVC008 SN SFC FBL FL10/FL170 MOD SFC/FL20 -18 -20 81 1013 ...
12 VRB02MPS 1500 SN OVC008 SN SFC MOD FL170/FL180 MOD SFC/FL20 -18 -21 81 1012 ...
15 02003MPS 2000 SN OVC009 SN SFC MOD FL10/FL20 MOD FL20/FL30 -19 -22 78 1013 ...
18 03004MPS 1500 SN OVC009 SN SFC MOD FL10/FL20 MOD FL20/FL30 -20 -23 75 1015 ...
21 03004MPS 2000 SN OVC010 SN SFC MOD FL10/FL20 -21 -25 72 1018 ...
27.01.2021
00 02004MPS 9999 -SN OVC010 -SN SFC MOD FL10/FL20 -22 -26 69 1022 ...
03 03003MPS 9999 BKN010 SFC MOD FL20/FL30 -23 -28 67 1024 ...
06 04003MPS 9999 BKN011 SFC MOD FL20/FL30 -24 -28 68 1026 ...
09 VRB02MPS 9999 -SN OVC011 -SN SFC MOD FL20/FL30 -23 -27 67 1026 ...
12 VRB02MPS 1500 SN OVC011 SN SFC MOD FL10/FL170 -22 -25 73 1025 ...
15 12003MPS 1500 SN OVC010 SN SFC MOD FL10/FL150 -21 -24 76 1024 ...


Широта 63.19777°, долгота 64.44177°, высота 15 м абс.
Средняя высота рельефа местности 22 м абс.
Прогнозы обновляются четыре раза в сутки: в 02, 08, 14, 20 ч всемирного времени.


Выбрать прогноз по другой модели Игрим
Онлайн-сводка гроз по Игрим (для РФ и ближнего зарубежья)
Карта фактических гроз в окрестностях Игрим
Динамические прогностические карты (ventusky.com)
Прогностическая карта высоты нижней границы облаков по Игрим (windy.com)
Выбрать другой город

Прогноз предназначен для личного научно-познавательного использования частными лицами
и не предназначен для принятия важных решений и выполнения реальных полётов воздушных судов

При копировании или ином использовании любых материалов данного сайта ссылка на © meteocenter.asia обязательна.

0.75/1.9